createdAt,value
2023-03-28T00:00:46.736Z,3.20
2023-03-28T00:01:46.728Z,3.20
2023-03-28T00:02:46.739Z,3.40
2023-03-28T00:03:46.766Z,3.00
2023-03-28T00:04:46.708Z,2.70
2023-03-28T00:05:46.730Z,2.70
2023-03-28T00:06:46.697Z,2.60
2023-03-28T00:07:46.686Z,2.80
2023-03-28T00:08:46.681Z,3.30
2023-03-28T00:09:46.674Z,3.40
2023-03-28T00:10:46.666Z,2.90
2023-03-28T00:11:46.665Z,2.50
2023-03-28T00:12:46.657Z,2.50
2023-03-28T00:13:46.664Z,2.80
2023-03-28T00:14:46.653Z,2.80
2023-03-28T00:15:46.654Z,2.80
2023-03-28T00:16:46.627Z,2.60
2023-03-28T00:17:46.721Z,2.40
2023-03-28T00:18:46.624Z,2.20
2023-03-28T00:19:46.605Z,2.90
2023-03-28T00:20:46.597Z,2.80
2023-03-28T00:21:46.630Z,2.40
2023-03-28T00:22:46.586Z,2.50
2023-03-28T00:23:46.579Z,2.80
2023-03-28T00:24:46.590Z,2.50
2023-03-28T00:25:46.564Z,2.50
2023-03-28T00:26:46.574Z,2.40
2023-03-28T00:27:46.548Z,2.70
2023-03-28T00:28:46.557Z,2.40
2023-03-28T00:29:46.535Z,2.90
2023-03-28T00:30:46.539Z,2.70
2023-03-28T00:31:46.552Z,3.10
2023-03-28T00:32:46.535Z,2.80
2023-03-28T00:33:46.515Z,2.70
2023-03-28T00:34:46.504Z,3.10
2023-03-28T00:35:46.557Z,3.30
2023-03-28T00:36:46.490Z,2.90
2023-03-28T00:37:46.498Z,3.10
2023-03-28T00:38:46.473Z,2.90
2023-03-28T00:39:46.469Z,2.50
2023-03-28T00:40:46.461Z,3.20
2023-03-28T00:41:46.449Z,3.50
2023-03-28T00:42:46.446Z,3.20
2023-03-28T00:43:46.451Z,2.80
2023-03-28T00:44:46.432Z,2.80
2023-03-28T00:45:53.206Z,3.10
2023-03-28T00:46:46.454Z,3.10
2023-03-28T00:47:46.471Z,3.10
2023-03-28T00:48:46.405Z,3.30
2023-03-28T00:49:46.396Z,2.70
2023-03-28T00:50:46.390Z,3.50
2023-03-28T00:51:46.400Z,3.20
2023-03-28T00:52:46.372Z,2.70
2023-03-28T00:53:46.509Z,2.50
2023-03-28T00:54:46.366Z,2.40
2023-03-28T00:55:46.354Z,2.50
2023-03-28T00:56:46.362Z,2.50
2023-03-28T00:57:46.339Z,2.70
2023-03-28T00:58:46.334Z,2.60
2023-03-28T00:59:46.331Z,2.60
2023-03-28T01:00:46.322Z,3.00
2023-03-28T01:01:46.383Z,2.60
2023-03-28T01:02:46.329Z,3.00
2023-03-28T01:03:46.569Z,2.70
2023-03-28T01:04:46.292Z,2.70
2023-03-28T01:05:46.281Z,2.90
2023-03-28T01:06:46.287Z,3.00
2023-03-28T01:07:46.263Z,3.10
2023-03-28T01:08:46.300Z,2.90
2023-03-28T01:09:46.272Z,3.00
2023-03-28T01:10:46.251Z,3.10
2023-03-28T01:11:46.248Z,3.10
2023-03-28T01:12:46.232Z,3.10
2023-03-28T01:13:46.221Z,3.10
2023-03-28T01:14:46.216Z,2.80
2023-03-28T01:15:46.271Z,2.60
2023-03-28T01:16:46.211Z,2.90
2023-03-28T01:17:46.242Z,2.50
2023-03-28T01:18:46.190Z,2.90
2023-03-28T01:19:46.178Z,2.80
2023-03-28T01:20:46.173Z,2.80
2023-03-28T01:21:46.167Z,3.10
2023-03-28T01:22:56.777Z,2.30
2023-03-28T01:23:46.151Z,2.60
2023-03-28T01:24:46.145Z,2.80
2023-03-28T01:25:46.158Z,3.20
2023-03-28T01:26:46.134Z,2.40
2023-03-28T01:27:46.126Z,2.60
2023-03-28T01:28:46.114Z,2.60
2023-03-28T01:29:46.107Z,2.60
2023-03-28T01:30:46.103Z,2.70
2023-03-28T01:31:46.105Z,2.80
2023-03-28T01:32:46.117Z,2.50
2023-03-28T01:33:46.081Z,2.30
2023-03-28T01:34:46.071Z,2.50
2023-03-28T01:35:46.122Z,2.50
2023-03-28T01:36:46.060Z,2.50
2023-03-28T01:37:46.049Z,2.70
2023-03-28T01:38:46.045Z,2.60
2023-03-28T01:39:46.039Z,3.30
2023-03-28T01:40:46.025Z,2.90
2023-03-28T01:41:46.037Z,2.80
2023-03-28T01:42:46.017Z,3.00
2023-03-28T01:43:46.006Z,2.70
2023-03-28T01:44:45.997Z,2.80
2023-03-28T01:45:46.020Z,2.80
2023-03-28T01:46:45.985Z,3.30
2023-03-28T01:47:46.057Z,3.30
2023-03-28T01:48:45.973Z,3.00
2023-03-28T01:49:45.961Z,3.60
2023-03-28T01:50:46.402Z,3.10
2023-03-28T01:51:45.944Z,3.20
2023-03-28T01:52:45.943Z,3.10
2023-03-28T01:53:45.930Z,3.30
2023-03-28T01:54:45.933Z,3.50
2023-03-28T01:55:45.922Z,3.00
2023-03-28T01:56:45.964Z,3.20
2023-03-28T01:57:46.037Z,3.50
2023-03-28T01:58:45.899Z,3.70
2023-03-28T01:59:45.887Z,3.40
2023-03-28T02:00:45.905Z,3.00
2023-03-28T02:01:45.874Z,3.30
2023-03-28T02:02:45.958Z,3.50
2023-03-28T02:03:45.859Z,3.70
2023-03-28T02:04:45.854Z,3.30
2023-03-28T02:05:45.841Z,3.20
2023-03-28T02:06:45.842Z,3.50
2023-03-28T02:07:45.829Z,3.70
2023-03-28T02:08:45.821Z,3.40
2023-03-28T02:09:45.812Z,3.40
2023-03-28T02:10:45.814Z,3.40
2023-03-28T02:11:45.810Z,3.30
2023-03-28T02:12:45.796Z,3.20
2023-03-28T02:13:45.813Z,3.20
2023-03-28T02:14:45.782Z,3.20
2023-03-28T02:15:45.777Z,3.30
2023-03-28T02:16:45.788Z,3.50
2023-03-28T02:17:45.789Z,3.40
2023-03-28T02:18:45.784Z,3.60
2023-03-28T02:19:45.746Z,3.10
2023-03-28T02:20:45.745Z,3.50
2023-03-28T02:21:45.734Z,3.40
2023-03-28T02:22:45.735Z,3.90
2023-03-28T02:23:45.717Z,3.50
2023-03-28T02:24:45.714Z,3.70
2023-03-28T02:25:45.706Z,3.50
2023-03-28T02:26:47.687Z,3.30
2023-03-28T02:27:45.690Z,3.20
2023-03-28T02:28:45.687Z,3.20
2023-03-28T02:29:45.700Z,3.30
2023-03-28T02:30:45.672Z,3.40
2023-03-28T02:31:45.719Z,3.30
2023-03-28T02:32:45.735Z,3.90
2023-03-28T02:33:45.652Z,3.60
2023-03-28T02:34:45.662Z,3.50
2023-03-28T02:35:45.664Z,3.20
2023-03-28T02:36:45.644Z,3.30
2023-03-28T02:37:45.626Z,3.30
2023-03-28T02:38:45.613Z,3.70
2023-03-28T02:39:45.607Z,3.50
2023-03-28T02:40:45.598Z,3.50
2023-03-28T02:41:45.593Z,3.40
2023-03-28T02:42:45.586Z,3.40
2023-03-28T02:43:45.580Z,3.60
2023-03-28T02:44:45.569Z,3.50
2023-03-28T02:45:45.633Z,3.40
2023-03-28T02:46:45.570Z,3.80
2023-03-28T02:47:45.622Z,3.40
2023-03-28T02:48:45.542Z,3.50
2023-03-28T02:49:50.418Z,3.40
2023-03-28T02:50:45.527Z,3.60
2023-03-28T02:51:45.517Z,4.00
2023-03-28T02:52:45.523Z,3.90
2023-03-28T02:53:45.505Z,3.20
2023-03-28T02:54:45.496Z,3.50
2023-03-28T02:55:45.486Z,3.50
2023-03-28T02:56:45.506Z,3.10
2023-03-28T02:57:45.480Z,3.10
2023-03-28T02:58:45.518Z,3.00
2023-03-28T02:59:45.463Z,3.20
2023-03-28T03:00:45.458Z,3.10
2023-03-28T03:01:45.501Z,3.20
2023-03-28T03:02:45.480Z,3.30
2023-03-28T03:03:45.503Z,3.60
2023-03-28T03:04:45.423Z,3.40
2023-03-28T03:05:45.416Z,3.10
2023-03-28T03:06:45.413Z,3.50
2023-03-28T03:07:45.401Z,3.00
2023-03-28T03:08:45.391Z,3.20
2023-03-28T03:09:45.880Z,3.30
2023-03-28T03:10:45.379Z,2.90
2023-03-28T03:11:45.391Z,3.30
2023-03-28T03:12:45.380Z,3.40
2023-03-28T03:13:45.364Z,3.00
2023-03-28T03:14:45.356Z,2.90
2023-03-28T03:15:45.388Z,3.10
2023-03-28T03:16:45.339Z,3.10
2023-03-28T03:17:45.407Z,3.00
2023-03-28T03:18:45.319Z,3.00
2023-03-28T03:19:45.313Z,3.30
2023-03-28T03:20:45.301Z,3.30
2023-03-28T03:21:45.300Z,3.20
2023-03-28T03:22:45.287Z,3.40
2023-03-28T03:23:45.279Z,3.20
2023-03-28T03:24:45.272Z,3.60
2023-03-28T03:25:45.383Z,3.30
2023-03-28T03:26:45.261Z,3.40
2023-03-28T03:27:45.255Z,3.40
2023-03-28T03:28:45.244Z,3.50
2023-03-28T03:29:45.233Z,3.40
2023-03-28T03:30:45.255Z,3.60
2023-03-28T03:31:45.293Z,3.60
2023-03-28T03:32:45.310Z,4.00
2023-03-28T03:33:45.222Z,3.70
2023-03-28T03:34:45.192Z,3.90
2023-03-28T03:35:45.199Z,3.70
2023-03-28T03:36:45.177Z,4.10
2023-03-28T03:37:45.175Z,3.80
2023-03-28T03:38:45.161Z,3.70
2023-03-28T03:39:45.160Z,3.80
2023-03-28T03:40:45.148Z,3.80
2023-03-28T03:41:45.143Z,3.50
2023-03-28T03:42:45.129Z,3.50
2023-03-28T03:43:47.174Z,3.50
2023-03-28T03:44:45.138Z,3.60
2023-03-28T03:45:45.117Z,3.60
2023-03-28T03:46:45.125Z,3.50
2023-03-28T03:47:45.190Z,3.90
2023-03-28T03:48:50.092Z,3.90
2023-03-28T03:49:45.101Z,3.60
2023-03-28T03:50:45.084Z,3.80
2023-03-28T03:51:45.061Z,3.70
2023-03-28T03:52:45.057Z,4.10
2023-03-28T03:53:45.050Z,4.20
2023-03-28T03:54:45.047Z,3.90
2023-03-28T03:55:45.034Z,3.90
2023-03-28T03:56:45.053Z,4.30
2023-03-28T03:57:45.017Z,4.30
2023-03-28T03:58:45.010Z,4.90
2023-03-28T03:59:44.999Z,5.20
2023-03-28T04:00:45.346Z,5.00
2023-03-28T04:01:45.027Z,4.70
2023-03-28T04:02:44.999Z,4.60
2023-03-28T04:03:45.029Z,4.80
2023-03-28T04:04:44.967Z,4.60
2023-03-28T04:05:44.977Z,4.40
2023-03-28T04:06:44.946Z,4.60
2023-03-28T04:07:44.950Z,4.60
2023-03-28T04:08:44.928Z,4.40
2023-03-28T04:09:44.927Z,4.40
2023-03-28T04:10:46.842Z,4.30
2023-03-28T04:11:44.911Z,4.50
2023-03-28T04:12:44.904Z,4.30
2023-03-28T04:13:44.905Z,5.00
2023-03-28T04:14:44.890Z,4.70
2023-03-28T04:15:44.920Z,4.50
2023-03-28T04:16:45.124Z,5.20
2023-03-28T04:17:44.895Z,5.20
2023-03-28T04:18:44.853Z,4.90
2023-03-28T04:19:44.848Z,4.90
2023-03-28T04:20:44.847Z,5.90
2023-03-28T04:21:44.871Z,4.90
2023-03-28T04:22:45.121Z,4.80
2023-03-28T04:23:44.823Z,4.40
2023-03-28T04:24:44.812Z,4.40
2023-03-28T04:25:44.795Z,4.80
2023-03-28T04:26:44.803Z,4.70
2023-03-28T04:27:44.790Z,4.40
2023-03-28T04:28:44.777Z,4.40
2023-03-28T04:29:44.774Z,4.30
2023-03-28T04:30:44.768Z,4.70
2023-03-28T04:31:44.792Z,4.60
2023-03-28T04:32:44.796Z,4.50
2023-03-28T04:33:44.743Z,4.40
2023-03-28T04:34:44.735Z,4.30
2023-03-28T04:35:44.761Z,4.20
2023-03-28T04:36:44.725Z,4.00
2023-03-28T04:37:44.735Z,4.30
2023-03-28T04:38:44.712Z,4.50
2023-03-28T04:39:44.709Z,4.50
2023-03-28T04:40:44.706Z,4.60
2023-03-28T04:41:44.734Z,4.60
2023-03-28T04:42:44.689Z,4.70
2023-03-28T04:43:44.678Z,4.50
2023-03-28T04:44:44.655Z,4.60
2023-03-28T04:45:44.702Z,4.30
2023-03-28T04:46:44.651Z,5.10
2023-03-28T04:47:44.671Z,4.40
2023-03-28T04:48:44.629Z,4.30
2023-03-28T04:49:44.621Z,4.90
2023-03-28T04:50:44.625Z,4.60
2023-03-28T04:51:44.609Z,4.90
2023-03-28T04:52:44.604Z,5.40
2023-03-28T04:53:44.611Z,5.20
2023-03-28T04:54:44.583Z,4.80
2023-03-28T04:55:44.581Z,3.90
2023-03-28T04:56:44.607Z,4.20
2023-03-28T04:57:44.581Z,4.70
2023-03-28T04:58:44.556Z,4.60
2023-03-28T04:59:44.549Z,4.30
2023-03-28T05:00:44.543Z,4.80
2023-03-28T05:01:44.603Z,4.70
2023-03-28T05:02:44.681Z,5.30
2023-03-28T05:03:44.558Z,5.10
2023-03-28T05:04:44.516Z,4.50
2023-03-28T05:05:44.500Z,4.60
2023-03-28T05:06:44.488Z,4.30
2023-03-28T05:07:44.481Z,4.80
2023-03-28T05:08:44.470Z,5.20
2023-03-28T05:09:44.504Z,4.70
2023-03-28T05:10:44.476Z,4.90
2023-03-28T05:11:44.440Z,5.00
2023-03-28T05:12:44.449Z,5.00
2023-03-28T05:13:44.452Z,4.70
2023-03-28T05:14:44.417Z,4.50
2023-03-28T05:15:44.434Z,4.60
2023-03-28T05:16:44.458Z,4.80
2023-03-28T05:17:44.486Z,4.70
2023-03-28T05:18:44.387Z,5.10
2023-03-28T05:19:44.382Z,4.90
2023-03-28T05:20:44.372Z,4.70
2023-03-28T05:21:44.373Z,4.60
2023-03-28T05:22:44.354Z,5.00
2023-03-28T05:23:44.355Z,4.70
2023-03-28T05:24:44.346Z,5.30
2023-03-28T05:25:44.351Z,5.20
2023-03-28T05:26:44.324Z,5.50
2023-03-28T05:27:44.322Z,5.00
2023-03-28T05:28:44.312Z,4.70
2023-03-28T05:29:44.312Z,4.90
2023-03-28T05:30:44.289Z,5.30
2023-03-28T05:31:44.313Z,5.50
2023-03-28T05:32:44.304Z,5.20
2023-03-28T05:33:44.274Z,5.30
2023-03-28T05:34:44.263Z,5.20
2023-03-28T05:35:44.319Z,5.70
2023-03-28T05:36:44.251Z,5.10
2023-03-28T05:37:46.674Z,5.40
2023-03-28T05:38:44.228Z,5.90
2023-03-28T05:39:44.229Z,5.70
2023-03-28T05:40:44.216Z,5.40
2023-03-28T05:41:44.229Z,5.10
2023-03-28T05:42:44.199Z,5.10
2023-03-28T05:43:44.192Z,5.50
2023-03-28T05:44:44.181Z,5.60
2023-03-28T05:45:44.208Z,5.70
2023-03-28T05:46:44.177Z,5.60
2023-03-28T05:47:44.225Z,5.60
2023-03-28T05:48:44.154Z,5.70
2023-03-28T05:49:44.146Z,5.40
2023-03-28T05:50:44.142Z,5.60
2023-03-28T05:51:44.131Z,5.90
2023-03-28T05:52:44.131Z,5.90
2023-03-28T05:53:44.116Z,5.70
2023-03-28T05:54:50.298Z,5.60
2023-03-28T05:55:44.101Z,5.70
2023-03-28T05:56:44.140Z,6.60
2023-03-28T05:57:44.114Z,6.00
2023-03-28T05:58:44.083Z,6.40
2023-03-28T05:59:44.067Z,6.40
2023-03-28T06:00:44.055Z,6.10
2023-03-28T06:01:44.050Z,6.00
2023-03-28T06:02:44.076Z,5.90
2023-03-28T06:03:44.096Z,6.80
2023-03-28T06:04:44.079Z,6.60
2023-03-28T06:05:44.017Z,6.50
2023-03-28T06:06:44.206Z,7.10
2023-03-28T06:07:44.001Z,7.20
2023-03-28T06:08:43.990Z,7.50
2023-03-28T06:09:43.986Z,7.50
2023-03-28T06:10:43.976Z,7.50
2023-03-28T06:11:43.969Z,8.00
2023-03-28T06:12:43.962Z,7.50
2023-03-28T06:13:43.976Z,7.60
2023-03-28T06:14:43.955Z,7.10
2023-03-28T06:15:43.941Z,7.30
2023-03-28T06:16:43.980Z,7.00
2023-03-28T06:17:44.017Z,6.60
2023-03-28T06:18:43.924Z,7.00
2023-03-28T06:19:43.945Z,7.50
2023-03-28T06:20:43.899Z,7.50
2023-03-28T06:21:43.894Z,7.50
2023-03-28T06:22:43.878Z,7.30
2023-03-28T06:23:43.872Z,7.20
2023-03-28T06:24:43.863Z,7.10
2023-03-28T06:25:43.866Z,7.70
2023-03-28T06:26:43.845Z,7.80
2023-03-28T06:27:43.839Z,7.80
2023-03-28T06:28:43.834Z,7.60
2023-03-28T06:29:43.852Z,7.80
2023-03-28T06:30:43.818Z,7.40
2023-03-28T06:31:43.844Z,8.00
2023-03-28T06:32:43.884Z,7.40
2023-03-28T06:33:43.796Z,8.30
2023-03-28T06:34:43.785Z,8.30
2023-03-28T06:35:43.823Z,7.90
2023-03-28T06:36:43.776Z,7.90
2023-03-28T06:37:43.766Z,8.00
2023-03-28T06:38:43.795Z,8.30
2023-03-28T06:39:43.758Z,7.70
2023-03-28T06:40:43.739Z,8.00
2023-03-28T06:41:43.737Z,8.20
2023-03-28T06:42:43.738Z,8.60
2023-03-28T06:43:43.723Z,8.60
2023-03-28T06:44:43.717Z,8.40
2023-03-28T06:45:43.724Z,8.40
2023-03-28T06:46:43.819Z,9.40
2023-03-28T06:47:43.710Z,9.40
2023-03-28T06:48:43.685Z,9.00
2023-03-28T06:49:43.670Z,8.70
2023-03-28T06:50:43.662Z,8.90
2023-03-28T06:51:43.660Z,8.70
2023-03-28T06:52:43.645Z,9.60
2023-03-28T06:53:43.649Z,9.00
2023-03-28T06:54:43.645Z,8.60
2023-03-28T06:55:43.626Z,8.90
2023-03-28T06:56:43.642Z,9.70
2023-03-28T06:57:43.612Z,9.30
2023-03-28T06:58:43.598Z,9.20
2023-03-28T06:59:43.598Z,9.10
2023-03-28T07:00:43.589Z,9.60
2023-03-28T07:01:43.604Z,8.70
2023-03-28T07:02:43.620Z,8.70
2023-03-28T07:03:43.647Z,8.60
2023-03-28T07:04:43.554Z,9.50
2023-03-28T07:05:43.548Z,9.40
2023-03-28T07:06:43.540Z,9.10
2023-03-28T07:07:43.539Z,9.00
2023-03-28T07:08:43.533Z,9.20
2023-03-28T07:09:43.519Z,9.20
2023-03-28T07:10:43.513Z,9.10
2023-03-28T07:11:43.861Z,9.20
2023-03-28T07:12:43.523Z,9.40
2023-03-28T07:13:43.499Z,9.40
2023-03-28T07:14:43.482Z,8.90
2023-03-28T07:15:43.476Z,7.90
2023-03-28T07:16:43.536Z,8.50
2023-03-28T07:17:43.506Z,8.50
2023-03-28T07:18:43.473Z,8.70
2023-03-28T07:19:43.447Z,7.90
2023-03-28T07:20:45.700Z,8.30
2023-03-28T07:21:43.443Z,8.50
2023-03-28T07:22:43.429Z,8.40
2023-03-28T07:23:43.418Z,7.80
2023-03-28T07:24:43.411Z,7.40
2023-03-28T07:25:43.409Z,7.80
2023-03-28T07:26:43.402Z,8.00
2023-03-28T07:27:43.404Z,7.90
2023-03-28T07:28:43.404Z,8.00
2023-03-28T07:29:43.380Z,7.90
2023-03-28T07:30:43.379Z,7.70
2023-03-28T07:31:43.445Z,7.30
2023-03-28T07:32:52.407Z,8.00
2023-03-28T07:33:43.435Z,7.90
2023-03-28T07:34:43.363Z,7.40
2023-03-28T07:35:43.364Z,6.70
2023-03-28T07:36:43.329Z,7.50
2023-03-28T07:37:43.328Z,7.10
2023-03-28T07:38:43.329Z,7.10
2023-03-28T07:39:43.303Z,6.50
2023-03-28T07:40:43.301Z,6.50
2023-03-28T07:41:43.327Z,7.00
2023-03-28T07:42:43.292Z,7.10
2023-03-28T07:43:43.285Z,7.10
2023-03-28T07:44:43.275Z,7.40
2023-03-28T07:45:43.308Z,6.50
2023-03-28T07:46:43.280Z,7.10
2023-03-28T07:47:43.272Z,7.10
2023-03-28T07:48:43.256Z,7.00
2023-03-28T07:49:43.267Z,6.80
2023-03-28T07:50:43.239Z,6.70
2023-03-28T07:51:43.229Z,6.70
2023-03-28T07:52:43.224Z,6.30
2023-03-28T07:53:43.220Z,6.60
2023-03-28T07:54:43.214Z,6.70
2023-03-28T07:55:54.244Z,6.40
2023-03-28T07:56:43.231Z,7.00
2023-03-28T07:57:43.194Z,6.30
2023-03-28T07:58:43.206Z,6.80
2023-03-28T07:59:43.185Z,6.60
2023-03-28T08:00:43.194Z,7.10
2023-03-28T08:01:43.181Z,6.90
2023-03-28T08:02:45.002Z,6.50
2023-03-28T08:03:43.316Z,7.20
2023-03-28T08:04:43.158Z,6.50
2023-03-28T08:05:43.329Z,6.80
2023-03-28T08:06:43.149Z,6.50
2023-03-28T08:07:43.146Z,6.10
2023-03-28T08:08:43.149Z,6.60
2023-03-28T08:09:43.132Z,6.40
2023-03-28T08:10:43.133Z,7.00
2023-03-28T08:11:43.538Z,7.00
2023-03-28T08:12:43.129Z,7.70
2023-03-28T08:13:43.109Z,6.90
2023-03-28T08:14:43.106Z,6.90
2023-03-28T08:15:43.115Z,6.70
2023-03-28T08:16:43.147Z,6.70
2023-03-28T08:17:43.143Z,6.90
2023-03-28T08:18:43.128Z,6.70
2023-03-28T08:19:43.090Z,6.40
2023-03-28T08:20:43.080Z,6.40
2023-03-28T08:21:43.092Z,6.50
2023-03-28T08:22:43.076Z,6.40
2023-03-28T08:23:43.078Z,6.20
2023-03-28T08:24:43.061Z,6.70
2023-03-28T08:25:43.062Z,6.30
2023-03-28T08:26:43.063Z,6.20
2023-03-28T08:27:43.049Z,6.20
2023-03-28T08:28:43.052Z,6.50
2023-03-28T08:29:43.044Z,6.50
2023-03-28T08:30:43.038Z,6.40
2023-03-28T08:31:43.073Z,6.20
2023-03-28T08:32:43.072Z,6.80
2023-03-28T08:33:43.029Z,6.90
2023-03-28T08:34:43.026Z,6.40
2023-03-28T08:35:43.052Z,6.50
2023-03-28T08:36:43.010Z,6.70
2023-03-28T08:37:43.119Z,6.20
2023-03-28T08:38:43.007Z,5.80
2023-03-28T08:39:42.995Z,6.90
2023-03-28T08:40:42.992Z,7.00
2023-03-28T08:41:42.989Z,6.70
2023-03-28T08:42:42.992Z,6.30
2023-03-28T08:43:42.978Z,6.30
2023-03-28T08:44:42.972Z,5.90
2023-03-28T08:45:42.972Z,6.10
2023-03-28T08:46:43.052Z,5.50
2023-03-28T08:47:42.997Z,5.40
2023-03-28T08:48:42.956Z,5.70
2023-03-28T08:49:42.954Z,5.60
2023-03-28T08:50:42.947Z,5.40
2023-03-28T08:51:42.939Z,5.50
2023-03-28T08:52:42.941Z,6.00
2023-03-28T08:53:42.952Z,6.20
2023-03-28T08:54:42.938Z,6.30
2023-03-28T08:55:42.925Z,5.80
2023-03-28T08:56:42.949Z,6.50
2023-03-28T08:57:42.913Z,6.30
2023-03-28T08:58:42.906Z,6.30
2023-03-28T08:59:42.904Z,6.40
2023-03-28T09:00:42.903Z,6.50
2023-03-28T09:01:42.928Z,6.60
2023-03-28T09:02:42.977Z,6.60
2023-03-28T09:03:42.943Z,6.10
2023-03-28T09:04:42.899Z,6.60
2023-03-28T09:05:42.869Z,6.20
2023-03-28T09:06:42.869Z,5.20
2023-03-28T09:07:42.860Z,5.60
2023-03-28T09:08:42.859Z,5.70
2023-03-28T09:09:42.871Z,5.50
2023-03-28T09:10:42.849Z,5.80
2023-03-28T09:11:42.837Z,5.70
2023-03-28T09:12:42.834Z,5.30
2023-03-28T09:13:42.830Z,5.90
2023-03-28T09:14:42.826Z,6.00
2023-03-28T09:15:42.815Z,5.90
2023-03-28T09:16:43.379Z,5.60
2023-03-28T09:17:42.822Z,5.10
2023-03-28T09:18:42.822Z,4.90
2023-03-28T09:19:48.366Z,4.60
2023-03-28T09:20:43.273Z,4.80
2023-03-28T09:21:42.785Z,5.00
2023-03-28T09:22:42.782Z,4.60
2023-03-28T09:23:42.772Z,4.60
2023-03-28T09:24:42.777Z,5.30
2023-03-28T09:25:42.783Z,4.70
2023-03-28T09:26:42.763Z,4.70
2023-03-28T09:27:42.762Z,4.20
2023-03-28T09:28:42.746Z,4.70
2023-03-28T09:29:42.747Z,4.50
2023-03-28T09:30:42.754Z,5.00
2023-03-28T09:31:42.783Z,5.30
2023-03-28T09:32:42.755Z,4.90
2023-03-28T09:33:42.720Z,5.40
2023-03-28T09:34:42.713Z,4.60
2023-03-28T09:35:42.730Z,4.20
2023-03-28T09:36:48.884Z,4.50
2023-03-28T09:37:42.698Z,3.70
2023-03-28T09:38:42.705Z,3.90
2023-03-28T09:39:42.688Z,4.00
2023-03-28T09:40:42.692Z,3.40
2023-03-28T09:41:42.702Z,3.70
2023-03-28T09:42:42.677Z,3.60
2023-03-28T09:43:42.664Z,3.50
2023-03-28T09:44:53.501Z,3.50
2023-03-28T09:45:42.695Z,3.80
2023-03-28T09:46:42.674Z,4.30
2023-03-28T09:47:42.690Z,4.20
2023-03-28T09:48:42.741Z,3.60
2023-03-28T09:49:42.630Z,4.00
2023-03-28T09:50:42.626Z,3.60
2023-03-28T09:51:42.619Z,3.40
2023-03-28T09:52:42.641Z,3.80
2023-03-28T09:53:42.615Z,3.50
2023-03-28T09:54:42.608Z,3.50
2023-03-28T09:55:47.039Z,3.80
2023-03-28T09:56:42.668Z,3.80
2023-03-28T09:57:42.608Z,3.70
2023-03-28T09:58:42.589Z,4.20
2023-03-28T09:59:42.577Z,3.70
2023-03-28T10:00:42.573Z,4.10
2023-03-28T10:01:42.598Z,3.80
2023-03-28T10:02:42.604Z,3.60
2023-03-28T10:03:42.553Z,2.90
2023-03-28T10:04:42.562Z,2.70
2023-03-28T10:05:42.544Z,2.50
2023-03-28T10:06:42.547Z,2.50
2023-03-28T10:07:42.743Z,2.40
2023-03-28T10:08:42.530Z,2.70
2023-03-28T10:09:42.518Z,3.30
2023-03-28T10:10:42.518Z,2.80
2023-03-28T10:11:42.510Z,2.90
2023-03-28T10:12:42.506Z,2.80
2023-03-28T10:13:42.525Z,2.70
2023-03-28T10:14:42.497Z,2.70
2023-03-28T10:15:42.507Z,2.40
2023-03-28T10:16:43.755Z,2.40
2023-03-28T10:17:42.603Z,2.50
2023-03-28T10:18:42.491Z,2.30
2023-03-28T10:19:42.474Z,2.10
2023-03-28T10:20:42.459Z,2.20
2023-03-28T10:21:42.662Z,2.50
2023-03-28T10:22:42.451Z,2.70
2023-03-28T10:23:42.447Z,2.50
2023-03-28T10:24:42.443Z,2.60
2023-03-28T10:25:42.480Z,2.50
2023-03-28T10:26:42.432Z,2.80
2023-03-28T10:27:42.421Z,2.30
2023-03-28T10:28:42.418Z,2.20
2023-03-28T10:29:42.437Z,2.20
2023-03-28T10:30:42.451Z,2.30
2023-03-28T10:31:42.430Z,2.10
2023-03-28T10:32:42.421Z,2.10
2023-03-28T10:33:42.392Z,2.20
2023-03-28T10:34:42.387Z,2.10
2023-03-28T10:35:42.417Z,1.90
2023-03-28T10:36:42.386Z,1.80
2023-03-28T10:37:42.386Z,1.80
2023-03-28T10:38:42.364Z,1.90
2023-03-28T10:39:42.357Z,1.60
2023-03-28T10:40:42.442Z,1.50
2023-03-28T10:41:42.344Z,1.70
2023-03-28T10:42:42.342Z,1.60
2023-03-28T10:43:42.347Z,1.40
2023-03-28T10:44:42.331Z,1.60
2023-03-28T10:45:42.358Z,1.40
2023-03-28T10:46:42.428Z,1.60
2023-03-28T10:47:42.343Z,1.40
2023-03-28T10:48:42.310Z,1.60
2023-03-28T10:49:42.302Z,1.90
2023-03-28T10:50:42.303Z,1.60
2023-03-28T10:51:42.295Z,1.50
2023-03-28T10:52:42.296Z,1.60
2023-03-28T10:53:42.284Z,1.60
2023-03-28T10:54:42.281Z,1.70
2023-03-28T10:55:42.272Z,1.70
2023-03-28T10:56:42.299Z,1.80
2023-03-28T10:57:42.261Z,1.80
2023-03-28T10:58:42.260Z,2.00
2023-03-28T10:59:42.258Z,1.90
2023-03-28T11:00:42.246Z,1.60
2023-03-28T11:01:42.381Z,1.80
2023-03-28T11:02:42.294Z,1.80
2023-03-28T11:03:42.289Z,1.90
2023-03-28T11:04:42.225Z,1.70
2023-03-28T11:05:42.243Z,1.70
2023-03-28T11:06:42.221Z,1.50
2023-03-28T11:07:42.206Z,1.90
2023-03-28T11:08:42.210Z,2.00
2023-03-28T11:09:42.208Z,1.70
2023-03-28T11:10:42.191Z,2.00
2023-03-28T11:11:42.190Z,1.70
2023-03-28T11:12:54.254Z,1.60
2023-03-28T11:13:42.179Z,1.80
2023-03-28T11:14:42.175Z,2.00
2023-03-28T11:15:42.162Z,1.70
2023-03-28T11:16:42.377Z,1.90
2023-03-28T11:17:42.181Z,1.90
2023-03-28T11:18:42.146Z,1.70
2023-03-28T11:19:42.217Z,1.70
2023-03-28T11:20:42.141Z,1.90
2023-03-28T11:21:42.477Z,1.80
2023-03-28T11:23:42.118Z,1.60
2023-03-28T11:24:42.121Z,1.60
2023-03-28T11:25:42.117Z,1.60
2023-03-28T11:26:42.100Z,1.50
2023-03-28T11:27:42.127Z,1.60
2023-03-28T11:28:43.141Z,2.10
2023-03-28T11:29:43.428Z,1.60
2023-03-28T11:30:42.084Z,1.60
2023-03-28T11:31:42.127Z,1.60
2023-03-28T11:32:42.104Z,1.50
2023-03-28T11:33:42.093Z,1.70
2023-03-28T11:34:42.878Z,1.80
2023-03-28T11:35:42.083Z,1.60
2023-03-28T11:36:42.059Z,1.50
2023-03-28T11:37:42.072Z,1.70
2023-03-28T11:38:42.074Z,1.60
2023-03-28T11:39:42.046Z,1.80
2023-03-28T11:40:42.027Z,1.50
2023-03-28T11:41:42.033Z,1.60
2023-03-28T11:42:42.022Z,1.90
2023-03-28T11:43:42.012Z,1.60
2023-03-28T11:44:42.017Z,1.40
2023-03-28T11:45:50.251Z,1.70
2023-03-28T11:46:42.057Z,1.60
2023-03-28T11:47:42.054Z,1.70
2023-03-28T11:48:42.004Z,1.80
2023-03-28T11:49:42.020Z,1.50
2023-03-28T11:50:41.976Z,1.80
2023-03-28T11:51:41.972Z,2.10
2023-03-28T11:52:41.966Z,1.60
2023-03-28T11:53:41.959Z,1.70
2023-03-28T11:54:41.953Z,1.80
2023-03-28T11:55:41.950Z,1.70
2023-03-28T11:56:41.952Z,1.80
2023-03-28T11:57:41.942Z,1.70
2023-03-28T11:58:41.937Z,1.80
2023-03-28T11:59:41.927Z,1.70
2023-03-28T12:00:42.634Z,1.80
2023-03-28T12:01:41.943Z,1.70
2023-03-28T12:02:41.998Z,1.80
2023-03-28T12:03:41.945Z,1.80
2023-03-28T12:04:41.896Z,2.00
2023-03-28T12:05:41.923Z,2.20
2023-03-28T12:06:52.289Z,1.90
2023-03-28T12:07:41.885Z,1.90
2023-03-28T12:08:41.881Z,1.80
2023-03-28T12:09:41.870Z,2.30
2023-03-28T12:10:41.865Z,1.90
2023-03-28T12:11:41.861Z,2.00
2023-03-28T12:12:41.854Z,2.10
2023-03-28T12:13:46.000Z,2.00
2023-03-28T12:14:41.845Z,1.70
2023-03-28T12:15:41.855Z,1.80
2023-03-28T12:16:42.325Z,1.60
2023-03-28T12:17:41.875Z,1.50
2023-03-28T12:18:41.820Z,1.60
2023-03-28T12:19:41.835Z,1.70
2023-03-28T12:20:41.811Z,1.70
2023-03-28T12:21:41.846Z,1.70
2023-03-28T12:22:42.254Z,1.70
2023-03-28T12:23:41.804Z,1.60
2023-03-28T12:24:41.794Z,1.60
2023-03-28T12:25:41.790Z,1.80
2023-03-28T12:26:41.778Z,1.70
2023-03-28T12:27:41.773Z,1.70
2023-03-28T12:28:41.766Z,1.70
2023-03-28T12:29:41.769Z,1.90
2023-03-28T12:30:41.772Z,1.80
2023-03-28T12:31:41.760Z,1.60
2023-03-28T12:32:41.776Z,1.90
2023-03-28T12:33:41.742Z,1.80
2023-03-28T12:34:41.755Z,1.80
2023-03-28T12:35:41.766Z,1.80
2023-03-28T12:36:41.736Z,1.50
2023-03-28T12:37:41.742Z,1.50
2023-03-28T12:38:41.715Z,1.70
2023-03-28T12:39:41.712Z,1.80
2023-03-28T12:40:41.709Z,1.90
2023-03-28T12:41:41.709Z,1.70
2023-03-28T12:42:41.694Z,1.90
2023-03-28T12:43:41.694Z,1.80
2023-03-28T12:44:41.683Z,1.70
2023-03-28T12:45:41.721Z,1.70
2023-03-28T12:46:41.724Z,1.80
2023-03-28T12:47:41.748Z,1.70
2023-03-28T12:48:41.661Z,1.70
2023-03-28T12:49:41.668Z,1.80
2023-03-28T12:50:41.654Z,1.60
2023-03-28T12:51:41.648Z,1.80
2023-03-28T12:52:41.648Z,1.50
2023-03-28T12:53:41.660Z,1.40
2023-03-28T12:54:41.632Z,1.60
2023-03-28T12:55:41.639Z,1.60
2023-03-28T12:56:41.655Z,1.70
2023-03-28T12:57:41.696Z,1.80
2023-03-28T12:58:41.622Z,1.80
2023-03-28T12:59:41.607Z,1.40
2023-03-28T13:00:41.603Z,1.70
2023-03-28T13:01:41.654Z,1.80
2023-03-28T13:02:41.622Z,1.60
2023-03-28T13:03:41.588Z,1.80
2023-03-28T13:04:41.606Z,1.60
2023-03-28T13:05:41.585Z,1.60
2023-03-28T13:06:41.567Z,1.70
2023-03-28T13:07:41.572Z,1.80
2023-03-28T13:08:41.563Z,1.60
2023-03-28T13:09:41.584Z,2.20
2023-03-28T13:10:41.555Z,1.80
2023-03-28T13:11:41.549Z,2.80
2023-03-28T13:12:41.543Z,2.10
2023-03-28T13:13:41.542Z,1.80
2023-03-28T13:14:41.525Z,2.20
2023-03-28T13:15:41.562Z,2.00
2023-03-28T13:16:41.519Z,5.90
2023-03-28T13:17:41.544Z,2.10
2023-03-28T13:18:41.511Z,1.70
2023-03-28T13:19:41.504Z,1.70